sensor_id;sensor_type;location;lat;lon;timestamp;pressure;altitude;pressure_sealevel;temperature;humidity
11347;BME280;5728;42.722;23.258;2023-12-07T00:01:47;94409.91;;;6.68;100.00
11347;BME280;5728;42.722;23.258;2023-12-07T00:04:14;94404.59;;;6.89;100.00
11347;BME280;5728;42.722;23.258;2023-12-07T00:06:41;94421.72;;;6.99;98.23
11347;BME280;5728;42.722;23.258;2023-12-07T00:09:10;94409.00;;;6.75;99.48
11347;BME280;5728;42.722;23.258;2023-12-07T00:11:36;94411.84;;;6.30;100.00
11347;BME280;5728;42.722;23.258;2023-12-07T00:14:03;94405.66;;;6.58;100.00
11347;BME280;5728;42.722;23.258;2023-12-07T00:16:30;94415.03;;;6.74;100.00
11347;BME280;5728;42.722;23.258;2023-12-07T00:18:58;94413.28;;;6.76;100.00
11347;BME280;5728;42.722;23.258;2023-12-07T00:21:25;94416.78;;;6.69;100.00
11347;BME280;5728;42.722;23.258;2023-12-07T00:23:51;94402.16;;;6.68;99.78
11347;BME280;5728;42.722;23.258;2023-12-07T00:26:20;94412.38;;;6.83;100.00
11347;BME280;5728;42.722;23.258;2023-12-07T00:28:47;94412.25;;;6.98;99.76
11347;BME280;5728;42.722;23.258;2023-12-07T00:31:14;94415.72;;;6.96;98.43
11347;BME280;5728;42.722;23.258;2023-12-07T00:33:41;94419.00;;;7.15;98.71
11347;BME280;5728;42.722;23.258;2023-12-07T00:36:08;94420.06;;;6.89;98.95
11347;BME280;5728;42.722;23.258;2023-12-07T00:38:35;94408.06;;;6.82;98.38
11347;BME280;5728;42.722;23.258;2023-12-07T00:41:02;94412.50;;;6.62;99.14
11347;BME280;5728;42.722;23.258;2023-12-07T00:43:31;94404.72;;;6.74;99.34
11347;BME280;5728;42.722;23.258;2023-12-07T00:45:58;94409.88;;;6.74;99.49
11347;BME280;5728;42.722;23.258;2023-12-07T00:48:25;94409.31;;;6.21;99.51
11347;BME280;5728;42.722;23.258;2023-12-07T00:50:51;94416.97;;;6.39;100.00
11347;BME280;5728;42.722;23.258;2023-12-07T00:53:18;94403.00;;;6.73;99.75
11347;BME280;5728;42.722;23.258;2023-12-07T00:55:45;94403.75;;;6.87;99.43
11347;BME280;5728;42.722;23.258;2023-12-07T00:58:12;94392.53;;;6.94;98.04
11347;BME280;5728;42.722;23.258;2023-12-07T01:00:41;94404.53;;;6.98;98.17
11347;BME280;5728;42.722;23.258;2023-12-07T01:03:08;94408.78;;;7.02;98.03
11347;BME280;5728;42.722;23.258;2023-12-07T01:05:35;94408.63;;;7.24;95.76
11347;BME280;5728;42.722;23.258;2023-12-07T01:08:02;94398.56;;;6.93;95.30
11347;BME280;5728;42.722;23.258;2023-12-07T01:10:29;94406.47;;;6.66;96.98
11347;BME280;5728;42.722;23.258;2023-12-07T01:12:57;94395.34;;;6.61;98.94
11347;BME280;5728;42.722;23.258;2023-12-07T01:15:24;94403.91;;;6.65;99.95
11347;BME280;5728;42.722;23.258;2023-12-07T01:17:52;94403.94;;;6.57;100.00
11347;BME280;5728;42.722;23.258;2023-12-07T01:20:19;94404.91;;;6.44;99.41
11347;BME280;5728;42.722;23.258;2023-12-07T01:22:46;94405.09;;;6.02;100.00
11347;BME280;5728;42.722;23.258;2023-12-07T01:25:13;94399.72;;;6.50;100.00
11347;BME280;5728;42.722;23.258;2023-12-07T01:27:45;94403.19;;;6.46;100.00
11347;BME280;5728;42.722;23.258;2023-12-07T01:30:12;94400.56;;;6.51;99.44
11347;BME280;5728;42.722;23.258;2023-12-07T01:32:39;94392.19;;;6.15;100.00
11347;BME280;5728;42.722;23.258;2023-12-07T01:35:08;94406.56;;;6.51;100.00
11347;BME280;5728;42.722;23.258;2023-12-07T01:37:35;94399.75;;;6.46;100.00
11347;BME280;5728;42.722;23.258;2023-12-07T01:40:03;94395.75;;;5.89;100.00
11347;BME280;5728;42.722;23.258;2023-12-07T01:42:35;94398.13;;;6.25;100.00
11347;BME280;5728;42.722;23.258;2023-12-07T01:45:03;94393.69;;;6.51;100.00
11347;BME280;5728;42.722;23.258;2023-12-07T01:47:31;94387.53;;;6.73;100.00
11347;BME280;5728;42.722;23.258;2023-12-07T01:49:58;94396.47;;;6.18;100.00
11347;BME280;5728;42.722;23.258;2023-12-07T01:52:29;94380.94;;;6.27;100.00
11347;BME280;5728;42.722;23.258;2023-12-07T01:54:56;94385.16;;;6.46;100.00
11347;BME280;5728;42.722;23.258;2023-12-07T01:57:24;94390.19;;;6.61;100.00
11347;BME280;5728;42.722;23.258;2023-12-07T01:59:51;94376.47;;;6.61;99.52
11347;BME280;5728;42.722;23.258;2023-12-07T02:02:18;94382.38;;;6.73;99.78
11347;BME280;5728;42.722;23.258;2023-12-07T02:04:45;94383.13;;;6.92;99.03
11347;BME280;5728;42.722;23.258;2023-12-07T02:07:12;94384.03;;;6.80;98.21
11347;BME280;5728;42.722;23.258;2023-12-07T02:09:41;94392.69;;;6.70;98.52
11347;BME280;5728;42.722;23.258;2023-12-07T02:12:08;94377.44;;;6.40;98.93
11347;BME280;5728;42.722;23.258;2023-12-07T02:14:35;94378.22;;;6.56;100.00
11347;BME280;5728;42.722;23.258;2023-12-07T02:17:08;94392.72;;;6.67;100.00
11347;BME280;5728;42.722;23.258;2023-12-07T02:19:48;94380.75;;;6.60;100.00
11347;BME280;5728;42.722;23.258;2023-12-07T02:22:25;94387.63;;;6.58;100.00
11347;BME280;5728;42.722;23.258;2023-12-07T02:25:04;94391.84;;;6.74;97.77
11347;BME280;5728;42.722;23.258;2023-12-07T02:27:40;94387.50;;;6.75;98.71
11347;BME280;5728;42.722;23.258;2023-12-07T02:30:10;94393.38;;;6.95;97.92
11347;BME280;5728;42.722;23.258;2023-12-07T02:32:41;94382.16;;;7.00;98.12
11347;BME280;5728;42.722;23.258;2023-12-07T02:35:11;94384.13;;;6.68;99.14
11347;BME280;5728;42.722;23.258;2023-12-07T02:37:42;94386.00;;;6.47;99.17
11347;BME280;5728;42.722;23.258;2023-12-07T02:40:12;94381.56;;;6.68;98.64
11347;BME280;5728;42.722;23.258;2023-12-07T02:42:44;94387.53;;;6.73;98.29
11347;BME280;5728;42.722;23.258;2023-12-07T02:45:12;94369.47;;;6.76;98.50
11347;BME280;5728;42.722;23.258;2023-12-07T02:47:39;94370.38;;;6.74;98.20
11347;BME280;5728;42.722;23.258;2023-12-07T02:50:09;94373.94;;;6.50;98.76
11347;BME280;5728;42.722;23.258;2023-12-07T02:52:36;94375.63;;;6.56;98.90
11347;BME280;5728;42.722;23.258;2023-12-07T02:55:04;94373.16;;;6.40;99.28
11347;BME280;5728;42.722;23.258;2023-12-07T02:57:31;94372.31;;;6.37;99.71
11347;BME280;5728;42.722;23.258;2023-12-07T03:00:00;94376.00;;;5.94;100.00
11347;BME280;5728;42.722;23.258;2023-12-07T03:02:32;94376.81;;;5.94;100.00
11347;BME280;5728;42.722;23.258;2023-12-07T03:04:59;94375.94;;;6.03;100.00
11347;BME280;5728;42.722;23.258;2023-12-07T03:07:26;94382.84;;;5.92;100.00
11347;BME280;5728;42.722;23.258;2023-12-07T03:09:52;94370.88;;;5.75;100.00
11347;BME280;5728;42.722;23.258;2023-12-07T03:12:19;94378.50;;;6.04;100.00
11347;BME280;5728;42.722;23.258;2023-12-07T03:14:46;94370.72;;;6.12;100.00
11347;BME280;5728;42.722;23.258;2023-12-07T03:17:15;94374.09;;;6.26;100.00
11347;BME280;5728;42.722;23.258;2023-12-07T03:19:42;94378.44;;;6.21;100.00
11347;BME280;5728;42.722;23.258;2023-12-07T03:22:09;94374.13;;;6.17;100.00
11347;BME280;5728;42.722;23.258;2023-12-07T03:24:39;94399.09;;;6.00;100.00
11347;BME280;5728;42.722;23.258;2023-12-07T03:27:07;94383.59;;;6.16;100.00
11347;BME280;5728;42.722;23.258;2023-12-07T03:29:34;94384.47;;;6.09;100.00
11347;BME280;5728;42.722;23.258;2023-12-07T03:32:01;94388.81;;;6.00;100.00
11347;BME280;5728;42.722;23.258;2023-12-07T03:34:29;94388.78;;;6.07;100.00
11347;BME280;5728;42.722;23.258;2023-12-07T03:36:56;94392.31;;;5.91;100.00
11347;BME280;5728;42.722;23.258;2023-12-07T03:39:23;94398.13;;;6.31;100.00
11347;BME280;5728;42.722;23.258;2023-12-07T03:41:51;94389.50;;;6.36;99.50
11347;BME280;5728;42.722;23.258;2023-12-07T03:44:18;94405.72;;;6.48;99.56
11347;BME280;5728;42.722;23.258;2023-12-07T03:46:46;94400.56;;;6.54;99.43
11347;BME280;5728;42.722;23.258;2023-12-07T03:49:13;94404.00;;;6.54;99.40
11347;BME280;5728;42.722;23.258;2023-12-07T03:51:41;94401.25;;;6.75;99.82
11347;BME280;5728;42.722;23.258;2023-12-07T03:54:08;94397.75;;;6.87;99.54
11347;BME280;5728;42.722;23.258;2023-12-07T03:56:35;94391.69;;;6.92;98.35
11347;BME280;5728;42.722;23.258;2023-12-07T03:59:02;94426.25;;;6.63;98.04
11347;BME280;5728;42.722;23.258;2023-12-07T04:01:29;94393.41;;;6.90;97.28
11347;BME280;5728;42.722;23.258;2023-12-07T04:03:57;94389.16;;;6.86;97.66
11347;BME280;5728;42.722;23.258;2023-12-07T04:06:26;94404.66;;;6.77;97.92
11347;BME280;5728;42.722;23.258;2023-12-07T04:08:58;94392.44;;;7.05;97.29
11347;BME280;5728;42.722;23.258;2023-12-07T04:11:25;94397.50;;;7.16;96.49
11347;BME280;5728;42.722;23.258;2023-12-07T04:13:52;94394.94;;;7.16;96.45
11347;BME280;5728;42.722;23.258;2023-12-07T04:16:19;94400.22;;;6.99;95.70
11347;BME280;5728;42.722;23.258;2023-12-07T04:18:46;94400.47;;;6.63;96.50
11347;BME280;5728;42.722;23.258;2023-12-07T04:21:13;94400.59;;;6.44;98.28
11347;BME280;5728;42.722;23.258;2023-12-07T04:23:40;94409.78;;;6.83;98.74
11347;BME280;5728;42.722;23.258;2023-12-07T04:26:09;94411.56;;;6.75;97.66
11347;BME280;5728;42.722;23.258;2023-12-07T04:28:36;94409.06;;;6.66;98.01
11347;BME280;5728;42.722;23.258;2023-12-07T04:31:03;94413.31;;;6.73;99.40
11347;BME280;5728;42.722;23.258;2023-12-07T04:33:30;94410.09;;;6.38;99.55
11347;BME280;5728;42.722;23.258;2023-12-07T04:35:57;94409.31;;;6.21;100.00
11347;BME280;5728;42.722;23.258;2023-12-07T04:38:24;94420.47;;;6.23;100.00
11347;BME280;5728;42.722;23.258;2023-12-07T04:40:51;94416.22;;;6.07;100.00
11347;BME280;5728;42.722;23.258;2023-12-07T04:43:20;94425.59;;;6.26;100.00
11347;BME280;5728;42.722;23.258;2023-12-07T04:45:47;94426.38;;;6.37;100.00
11347;BME280;5728;42.722;23.258;2023-12-07T04:48:13;94421.25;;;6.35;100.00
11347;BME280;5728;42.722;23.258;2023-12-07T04:50:39;94421.16;;;6.57;99.46
11347;BME280;5728;42.722;23.258;2023-12-07T04:53:06;94433.13;;;6.61;97.86
11347;BME280;5728;42.722;23.258;2023-12-07T04:55:33;94427.41;;;6.06;98.96
11347;BME280;5728;42.722;23.258;2023-12-07T04:58:01;94436.91;;;5.69;100.00
11347;BME280;5728;42.722;23.258;2023-12-07T05:00:29;94432.59;;;5.94;100.00
11347;BME280;5728;42.722;23.258;2023-12-07T05:02:56;94429.16;;;5.76;100.00
11347;BME280;5728;42.722;23.258;2023-12-07T05:05:23;94433.47;;;5.73;100.00
11347;BME280;5728;42.722;23.258;2023-12-07T05:07:50;94436.00;;;5.94;100.00
11347;BME280;5728;42.722;23.258;2023-12-07T05:10:17;94430.88;;;5.99;100.00
11347;BME280;5728;42.722;23.258;2023-12-07T05:12:44;94438.47;;;6.23;100.00
11347;BME280;5728;42.722;23.258;2023-12-07T05:15:11;94432.44;;;6.30;100.00
11347;BME280;5728;42.722;23.258;2023-12-07T05:17:39;94436.81;;;6.08;100.00
11347;BME280;5728;42.722;23.258;2023-12-07T05:20:07;94443.66;;;6.15;100.00
11347;BME280;5728;42.722;23.258;2023-12-07T05:22:34;94430.81;;;6.08;100.00
11347;BME280;5728;42.722;23.258;2023-12-07T05:25:01;94439.38;;;6.16;100.00
11347;BME280;5728;42.722;23.258;2023-12-07T05:27:29;94432.50;;;6.21;100.00
11347;BME280;5728;42.722;23.258;2023-12-07T05:29:56;94448.03;;;5.95;100.00
11347;BME280;5728;42.722;23.258;2023-12-07T05:32:23;94458.28;;;6.06;100.00
11347;BME280;5728;42.722;23.258;2023-12-07T05:34:52;94449.72;;;5.99;100.00
11347;BME280;5728;42.722;23.258;2023-12-07T05:37:19;94454.91;;;5.86;100.00
11347;BME280;5728;42.722;23.258;2023-12-07T05:39:45;94454.88;;;5.98;100.00
11347;BME280;5728;42.722;23.258;2023-12-07T05:42:12;94448.94;;;5.65;100.00
11347;BME280;5728;42.722;23.258;2023-12-07T05:44:39;94451.50;;;5.56;100.00
11347;BME280;5728;42.722;23.258;2023-12-07T05:47:06;94460.91;;;5.66;100.00
11347;BME280;5728;42.722;23.258;2023-12-07T05:49:34;94454.91;;;5.67;100.00
11347;BME280;5728;42.722;23.258;2023-12-07T05:52:03;94457.47;;;5.81;100.00
11347;BME280;5728;42.722;23.258;2023-12-07T05:54:30;94454.06;;;5.68;100.00
11347;BME280;5728;42.722;23.258;2023-12-07T05:56:57;94466.91;;;5.77;100.00
11347;BME280;5728;42.722;23.258;2023-12-07T05:59:25;94462.63;;;5.87;100.00
11347;BME280;5728;42.722;23.258;2023-12-07T06:01:52;94466.09;;;5.63;100.00
11347;BME280;5728;42.722;23.258;2023-12-07T06:04:19;94477.19;;;5.84;100.00
11347;BME280;5728;42.722;23.258;2023-12-07T06:06:46;94476.38;;;5.63;100.00
11347;BME280;5728;42.722;23.258;2023-12-07T06:09:15;94473.75;;;5.81;100.00
11347;BME280;5728;42.722;23.258;2023-12-07T06:11:42;94480.66;;;5.86;100.00
11347;BME280;5728;42.722;23.258;2023-12-07T06:14:09;94472.88;;;6.05;100.00
11347;BME280;5728;42.722;23.258;2023-12-07T06:16:37;94468.47;;;6.36;100.00
11347;BME280;5728;42.722;23.258;2023-12-07T06:19:04;94459.88;;;6.29;100.00
11347;BME280;5728;42.722;23.258;2023-12-07T06:21:31;94471.88;;;6.35;100.00
11347;BME280;5728;42.722;23.258;2023-12-07T06:23:58;94471.81;;;6.52;100.00
11347;BME280;5728;42.722;23.258;2023-12-07T06:26:27;94464.91;;;6.55;99.83
11347;BME280;5728;42.722;23.258;2023-12-07T06:28:54;94482.09;;;6.59;98.18
11347;BME280;5728;42.722;23.258;2023-12-07T06:31:21;94473.53;;;6.51;98.62
11347;BME280;5728;42.722;23.258;2023-12-07T06:33:48;94482.91;;;6.69;99.20
11347;BME280;5728;42.722;23.258;2023-12-07T06:36:18;94494.16;;;6.45;99.09
11347;BME280;5728;42.722;23.258;2023-12-07T06:38:46;94490.78;;;6.34;100.00
11347;BME280;5728;42.722;23.258;2023-12-07T06:41:14;94496.59;;;6.72;99.81
11347;BME280;5728;42.722;23.258;2023-12-07T06:43:42;94501.56;;;7.02;97.54
11347;BME280;5728;42.722;23.258;2023-12-07T06:46:10;94489.63;;;6.91;96.21
11347;BME280;5728;42.722;23.258;2023-12-07T06:48:37;94480.47;;;6.35;97.29
11347;BME280;5728;42.722;23.258;2023-12-07T06:51:04;94515.69;;;6.24;98.73
11347;BME280;5728;42.722;23.258;2023-12-07T06:53:31;94508.75;;;6.44;100.00
11347;BME280;5728;42.722;23.258;2023-12-07T06:55:58;94499.25;;;6.59;100.00
11347;BME280;5728;42.722;23.258;2023-12-07T06:58:25;94501.72;;;6.81;99.30
11347;BME280;5728;42.722;23.258;2023-12-07T07:00:54;94498.22;;;6.91;98.58
11347;BME280;5728;42.722;23.258;2023-12-07T07:03:21;94498.34;;;6.72;98.84
11347;BME280;5728;42.722;23.258;2023-12-07T07:05:48;94497.38;;;6.91;99.19
11347;BME280;5728;42.722;23.258;2023-12-07T07:08:15;94497.50;;;6.62;98.31
11347;BME280;5728;42.722;23.258;2023-12-07T07:10:43;94504.50;;;6.39;99.58
11347;BME280;5728;42.722;23.258;2023-12-07T07:13:10;94501.13;;;6.22;99.60
11347;BME280;5728;42.722;23.258;2023-12-07T07:15:41;94506.34;;;5.87;100.00
11347;BME280;5728;42.722;23.258;2023-12-07T07:18:10;94514.94;;;5.98;100.00
11347;BME280;5728;42.722;23.258;2023-12-07T07:20:37;94513.19;;;5.94;100.00
11347;BME280;5728;42.722;23.258;2023-12-07T07:23:04;94509.78;;;5.88;100.00
11347;BME280;5728;42.722;23.258;2023-12-07T07:25:31;94542.38;;;5.70;100.00
11347;BME280;5728;42.722;23.258;2023-12-07T07:27:58;94511.50;;;5.42;100.00
11347;BME280;5728;42.722;23.258;2023-12-07T07:30:25;94519.25;;;5.37;100.00
11347;BME280;5728;42.722;23.258;2023-12-07T07:32:53;94524.38;;;5.37;100.00
11347;BME280;5728;42.722;23.258;2023-12-07T07:35:21;94528.66;;;5.17;100.00
11347;BME280;5728;42.722;23.258;2023-12-07T07:37:48;94533.75;;;4.99;100.00
11347;BME280;5728;42.722;23.258;2023-12-07T07:40:15;94540.63;;;5.00;100.00
11347;BME280;5728;42.722;23.258;2023-12-07T07:42:42;94535.44;;;4.85;100.00
11347;BME280;5728;42.722;23.258;2023-12-07T07:45:10;94549.19;;;4.88;100.00
11347;BME280;5728;42.722;23.258;2023-12-07T07:47:37;94536.25;;;4.58;100.00
11347;BME280;5728;42.722;23.258;2023-12-07T07:50:05;94549.97;;;4.63;100.00
11347;BME280;5728;42.722;23.258;2023-12-07T07:52:34;94547.41;;;4.71;100.00
11347;BME280;5728;42.722;23.258;2023-12-07T07:55:02;94547.38;;;4.66;100.00
11347;BME280;5728;42.722;23.258;2023-12-07T07:57:30;94579.81;;;4.43;100.00
11347;BME280;5728;42.722;23.258;2023-12-07T07:59:57;94553.28;;;4.39;100.00
11347;BME280;5728;42.722;23.258;2023-12-07T08:02:24;94554.06;;;4.20;100.00
11347;BME280;5728;42.722;23.258;2023-12-07T08:04:51;94558.41;;;4.38;100.00
11347;BME280;5728;42.722;23.258;2023-12-07T08:07:18;94560.97;;;4.35;100.00
11347;BME280;5728;42.722;23.258;2023-12-07T08:09:47;94561.84;;;4.41;100.00
11347;BME280;5728;42.722;23.258;2023-12-07T08:12:14;94556.66;;;4.34;100.00
11347;BME280;5728;42.722;23.258;2023-12-07T08:14:41;94560.81;;;4.09;100.00
11347;BME280;5728;42.722;23.258;2023-12-07T08:17:10;94561.56;;;3.87;100.00
11347;BME280;5728;42.722;23.258;2023-12-07T08:19:37;94562.53;;;4.07;100.00
11347;BME280;5728;42.722;23.258;2023-12-07T08:22:05;94572.00;;;4.23;100.00
11347;BME280;5728;42.722;23.258;2023-12-07T08:24:32;94571.81;;;3.88;100.00
11347;BME280;5728;42.722;23.258;2023-12-07T08:27:00;94582.13;;;4.01;100.00
11347;BME280;5728;42.722;23.258;2023-12-07T08:29:29;94573.50;;;3.86;100.00
11347;BME280;5728;42.722;23.258;2023-12-07T08:31:56;94591.53;;;3.99;100.00
11347;BME280;5728;42.722;23.258;2023-12-07T08:34:23;94581.16;;;3.79;100.00
11347;BME280;5728;42.722;23.258;2023-12-07T08:36:50;94584.56;;;3.81;100.00
11347;BME280;5728;42.722;23.258;2023-12-07T08:39:18;94594.84;;;3.81;100.00
11347;BME280;5728;42.722;23.258;2023-12-07T08:41:45;94583.53;;;3.58;100.00
11347;BME280;5728;42.722;23.258;2023-12-07T08:44:13;94588.81;;;3.74;100.00
11347;BME280;5728;42.722;23.258;2023-12-07T08:46:40;94580.25;;;3.74;100.00
11347;BME280;5728;42.722;23.258;2023-12-07T08:49:10;94587.91;;;3.68;100.00
11347;BME280;5728;42.722;23.258;2023-12-07T08:51:37;94597.38;;;3.78;100.00
11347;BME280;5728;42.722;23.258;2023-12-07T08:54:04;94595.66;;;3.78;100.00
11347;BME280;5728;42.722;23.258;2023-12-07T08:56:31;94589.69;;;3.78;100.00
11347;BME280;5728;42.722;23.258;2023-12-07T08:58:59;94590.50;;;3.74;100.00
11347;BME280;5728;42.722;23.258;2023-12-07T09:01:27;94589.56;;;3.60;100.00
11347;BME280;5728;42.722;23.258;2023-12-07T09:03:55;94587.91;;;3.65;100.00
11347;BME280;5728;42.722;23.258;2023-12-07T09:06:22;94589.56;;;3.63;100.00
11347;BME280;5728;42.722;23.258;2023-12-07T09:08:50;94616.03;;;3.60;100.00
11347;BME280;5728;42.722;23.258;2023-12-07T09:11:17;94586.09;;;3.58;100.00
11347;BME280;5728;42.722;23.258;2023-12-07T09:13:44;94599.66;;;3.42;100.00
11347;BME280;5728;42.722;23.258;2023-12-07T09:16:11;94595.38;;;3.41;100.00
11347;BME280;5728;42.722;23.258;2023-12-07T09:18:40;94594.81;;;3.78;100.00
11347;BME280;5728;42.722;23.258;2023-12-07T09:21:07;94591.38;;;3.76;100.00
11347;BME280;5728;42.722;23.258;2023-12-07T09:23:34;94593.91;;;3.73;100.00
11347;BME280;5728;42.722;23.258;2023-12-07T09:26:03;94598.84;;;3.50;100.00
11347;BME280;5728;42.722;23.258;2023-12-07T09:28:31;94589.28;;;3.27;100.00
11347;BME280;5728;42.722;23.258;2023-12-07T09:30:59;94593.63;;;3.37;100.00
11347;BME280;5728;42.722;23.258;2023-12-07T09:33:25;94580.84;;;3.43;100.00
11347;BME280;5728;42.722;23.258;2023-12-07T09:35:54;94588.44;;;3.29;100.00
11347;BME280;5728;42.722;23.258;2023-12-07T09:38:21;94585.97;;;3.40;100.00
11347;BME280;5728;42.722;23.258;2023-12-07T09:40:52;94592.97;;;3.59;100.00
11347;BME280;5728;42.722;23.258;2023-12-07T09:43:19;94592.63;;;3.19;100.00
11347;BME280;5728;42.722;23.258;2023-12-07T09:45:48;94601.22;;;3.28;100.00
11347;BME280;5728;42.722;23.258;2023-12-07T09:48:16;94592.78;;;3.35;100.00
11347;BME280;5728;42.722;23.258;2023-12-07T09:50:44;94587.53;;;3.26;100.00
11347;BME280;5728;42.722;23.258;2023-12-07T09:53:12;94589.16;;;3.17;100.00
11347;BME280;5728;42.722;23.258;2023-12-07T09:55:40;94605.50;;;3.30;100.00
11347;BME280;5728;42.722;23.258;2023-12-07T09:58:07;94591.81;;;3.25;100.00
11347;BME280;5728;42.722;23.258;2023-12-07T10:00:34;94590.97;;;3.25;100.00
11347;BME280;5728;42.722;23.258;2023-12-07T10:03:01;94598.56;;;3.15;100.00
11347;BME280;5728;42.722;23.258;2023-12-07T10:05:28;94601.00;;;3.03;100.00
11347;BME280;5728;42.722;23.258;2023-12-07T10:07:55;94590.63;;;2.91;100.00
11347;BME280;5728;42.722;23.258;2023-12-07T10:10:23;94603.47;;;2.94;100.00
11347;BME280;5728;42.722;23.258;2023-12-07T10:12:52;94592.28;;;2.86;100.00
11347;BME280;5728;42.722;23.258;2023-12-07T10:15:22;94600.84;;;2.88;100.00
11347;BME280;5728;42.722;23.258;2023-12-07T10:17:50;94594.84;;;2.86;100.00
11347;BME280;5728;42.722;23.258;2023-12-07T10:20:19;94594.66;;;2.70;100.00
11347;BME280;5728;42.722;23.258;2023-12-07T10:22:49;94594.72;;;2.74;100.00
11347;BME280;5728;42.722;23.258;2023-12-07T10:25:29;94589.66;;;2.79;100.00
11347;BME280;5728;42.722;23.258;2023-12-07T10:27:56;94588.84;;;2.84;100.00
11347;BME280;5728;42.722;23.258;2023-12-07T10:30:23;94601.66;;;2.87;100.00
11347;BME280;5728;42.722;23.258;2023-12-07T10:32:51;94594.09;;;2.96;100.00
11347;BME280;5728;42.722;23.258;2023-12-07T10:35:19;94584.69;;;2.94;100.00
11347;BME280;5728;42.722;23.258;2023-12-07T10:37:46;94590.69;;;2.97;100.00
11347;BME280;5728;42.722;23.258;2023-12-07T10:40:13;94589.66;;;2.80;100.00
11347;BME280;5728;42.722;23.258;2023-12-07T10:42:44;94585.41;;;2.82;100.00
11347;BME280;5728;42.722;23.258;2023-12-07T10:45:14;94590.53;;;2.82;100.00
11347;BME280;5728;42.722;23.258;2023-12-07T10:47:43;94586.88;;;2.59;100.00
11347;BME280;5728;42.722;23.258;2023-12-07T10:50:14;94568.53;;;3.01;100.00
11347;BME280;5728;42.722;23.258;2023-12-07T10:52:44;94582.84;;;2.82;100.00
11347;BME280;5728;42.722;23.258;2023-12-07T10:55:16;94593.72;;;2.62;100.00
11347;BME280;5728;42.722;23.258;2023-12-07T10:57:47;94590.34;;;2.64;100.00
11347;BME280;5728;42.722;23.258;2023-12-07T11:00:15;94591.75;;;2.41;100.00
11347;BME280;5728;42.722;23.258;2023-12-07T11:02:43;94596.97;;;2.48;100.00
11347;BME280;5728;42.722;23.258;2023-12-07T11:05:12;94593.59;;;2.52;100.00
11347;BME280;5728;42.722;23.258;2023-12-07T11:07:48;94593.56;;;2.48;100.00
11347;BME280;5728;42.722;23.258;2023-12-07T11:10:21;94598.47;;;2.33;100.00
11347;BME280;5728;42.722;23.258;2023-12-07T11:13:00;94594.28;;;2.39;100.00
11347;BME280;5728;42.722;23.258;2023-12-07T11:15:34;94598.75;;;2.57;100.00
11347;BME280;5728;42.722;23.258;2023-12-07T11:18:02;94590.16;;;2.52;100.00
11347;BME280;5728;42.722;23.258;2023-12-07T11:20:39;94586.56;;;2.35;100.00
11347;BME280;5728;42.722;23.258;2023-12-07T11:23:07;94594.47;;;2.51;100.00
11347;BME280;5728;42.722;23.258;2023-12-07T11:25:34;94593.56;;;2.48;100.00
11347;BME280;5728;42.722;23.258;2023-12-07T11:28:03;94594.56;;;2.62;100.00
11347;BME280;5728;42.722;23.258;2023-12-07T11:30:32;94584.81;;;2.31;100.00
11347;BME280;5728;42.722;23.258;2023-12-07T11:32:59;94596.25;;;2.58;100.00
11347;BME280;5728;42.722;23.258;2023-12-07T11:35:26;94595.47;;;2.64;100.00
11347;BME280;5728;42.722;23.258;2023-12-07T11:38:04;94587.00;;;2.71;100.00
11347;BME280;5728;42.722;23.258;2023-12-07T11:40:35;94590.22;;;2.55;100.00
11347;BME280;5728;42.722;23.258;2023-12-07T11:43:04;94579.97;;;2.55;100.00
11347;BME280;5728;42.722;23.258;2023-12-07T11:45:39;94576.69;;;2.65;100.00
11347;BME280;5728;42.722;23.258;2023-12-07T11:48:10;94577.69;;;2.76;100.00
11347;BME280;5728;42.722;23.258;2023-12-07T11:50:53;94572.25;;;2.49;100.00
11347;BME280;5728;42.722;23.258;2023-12-07T11:53:21;94584.91;;;2.40;100.00
11347;BME280;5728;42.722;23.258;2023-12-07T11:55:49;94575.34;;;2.25;100.00
11347;BME280;5728;42.722;23.258;2023-12-07T11:58:17;94583.41;;;2.55;100.00
11347;BME280;5728;42.722;23.258;2023-12-07T12:00:45;94585.19;;;2.63;100.00
11347;BME280;5728;42.722;23.258;2023-12-07T12:03:13;94589.34;;;2.53;100.00
11347;BME280;5728;42.722;23.258;2023-12-07T12:05:41;94584.66;;;2.89;100.00
11347;BME280;5728;42.722;23.258;2023-12-07T12:08:09;94590.63;;;2.91;100.00
11347;BME280;5728;42.722;23.258;2023-12-07T12:10:37;94577.94;;;3.03;100.00
11347;BME280;5728;42.722;23.258;2023-12-07T12:13:04;94578.91;;;3.14;100.00
11347;BME280;5728;42.722;23.258;2023-12-07T12:15:33;94575.13;;;2.76;100.00
11347;BME280;5728;42.722;23.258;2023-12-07T12:18:00;94581.09;;;2.78;100.00
11347;BME280;5728;42.722;23.258;2023-12-07T12:20:28;94578.69;;;2.95;100.00
11347;BME280;5728;42.722;23.258;2023-12-07T12:22:55;94573.66;;;2.99;100.00
11347;BME280;5728;42.722;23.258;2023-12-07T12:25:23;94589.94;;;3.06;100.00
11347;BME280;5728;42.722;23.258;2023-12-07T12:27:52;94576.22;;;2.99;100.00
11347;BME280;5728;42.722;23.258;2023-12-07T12:30:20;94587.31;;;3.01;100.00
11347;BME280;5728;42.722;23.258;2023-12-07T12:32:50;94585.34;;;2.76;100.00
11347;BME280;5728;42.722;23.258;2023-12-07T12:35:17;94581.00;;;2.71;100.00
11347;BME280;5728;42.722;23.258;2023-12-07T12:37:46;94634.03;;;2.81;100.00
11347;BME280;5728;42.722;23.258;2023-12-07T12:40:15;94581.06;;;2.75;100.00
11347;BME280;5728;42.722;23.258;2023-12-07T12:42:44;94595.63;;;2.79;100.00
11347;BME280;5728;42.722;23.258;2023-12-07T12:45:12;94586.81;;;2.56;100.00
11347;BME280;5728;42.722;23.258;2023-12-07T12:47:41;94582.59;;;2.59;100.00
11347;BME280;5728;42.722;23.258;2023-12-07T12:50:11;94579.00;;;2.44;100.00
11347;BME280;5728;42.722;23.258;2023-12-07T12:52:40;94588.47;;;2.51;100.00
11347;BME280;5728;42.722;23.258;2023-12-07T12:55:08;94595.09;;;2.37;100.00
11347;BME280;5728;42.722;23.258;2023-12-07T12:57:36;94593.50;;;2.45;100.00
11347;BME280;5728;42.722;23.258;2023-12-07T13:00:05;94592.50;;;2.31;100.00
11347;BME280;5728;42.722;23.258;2023-12-07T13:02:33;94591.41;;;2.84;100.00
11347;BME280;5728;42.722;23.258;2023-12-07T13:05:00;94608.84;;;2.45;100.00
11347;BME280;5728;42.722;23.258;2023-12-07T13:07:29;94601.66;;;2.17;100.00